createdAt,value
2022-10-27T00:01:54.448Z,8.30
2022-10-27T00:06:58.259Z,6.67
2022-10-27T00:12:02.079Z,10.38
2022-10-27T00:17:07.280Z,7.75
2022-10-27T00:22:11.083Z,10.02
2022-10-27T00:27:14.861Z,10.07
2022-10-27T00:32:20.042Z,10.07
2022-10-27T00:37:23.840Z,9.73
2022-10-27T00:42:27.637Z,11.75
2022-10-27T00:47:36.193Z,8.98
2022-10-27T00:52:42.867Z,10.90
2022-10-27T00:57:48.778Z,10.20
2022-10-27T01:08:04.406Z,12.82
2022-10-27T01:13:08.288Z,11.18
2022-10-27T01:18:21.023Z,11.23
2022-10-27T01:23:33.903Z,13.10
2022-10-27T01:28:55.794Z,12.07
2022-10-27T01:34:05.079Z,9.57
2022-10-27T01:39:13.455Z,6.80
2022-10-27T01:44:22.337Z,10.82
2022-10-27T01:49:36.054Z,7.07
2022-10-27T01:54:42.154Z,11.40
2022-10-27T02:00:01.307Z,6.70
2022-10-27T02:05:09.157Z,8.30
2022-10-27T02:10:18.958Z,6.95
2022-10-27T02:15:29.883Z,13.82
2022-10-27T02:20:38.232Z,9.48
2022-10-27T02:25:45.494Z,9.60
2022-10-27T02:30:49.402Z,10.60
2022-10-27T02:35:54.734Z,10.13
2022-10-27T02:40:58.525Z,5.83
2022-10-27T02:46:02.308Z,9.18
2022-10-27T02:51:07.811Z,9.05
2022-10-27T02:56:12.550Z,9.83
2022-10-27T03:01:16.353Z,8.80
2022-10-27T03:06:21.606Z,9.38
2022-10-27T03:11:25.381Z,8.93
2022-10-27T03:16:29.134Z,9.48
2022-10-27T03:21:34.291Z,9.05
2022-10-27T03:26:38.051Z,12.25
2022-10-27T03:31:44.395Z,12.38
2022-10-27T03:36:49.611Z,16.25
2022-10-27T03:41:53.415Z,16.95
2022-10-27T03:46:57.193Z,18.63
2022-10-27T03:52:02.577Z,15.25
2022-10-27T03:57:06.353Z,16.20
2022-10-27T04:02:10.380Z,12.90
2022-10-27T04:07:15.605Z,11.38
2022-10-27T04:12:19.389Z,22.92
2022-10-27T04:17:23.176Z,12.70
2022-10-27T04:22:28.335Z,20.02
2022-10-27T04:27:32.108Z,14.18
2022-10-27T04:32:36.335Z,15.07
2022-10-27T04:37:41.550Z,16.75
2022-10-27T04:42:48.591Z,13.43
2022-10-27T04:47:52.814Z,15.18
2022-10-27T04:52:59.941Z,11.88
2022-10-27T04:58:06.865Z,13.50
2022-10-27T05:03:12.349Z,16.38
2022-10-27T05:08:17.567Z,15.00
2022-10-27T05:13:21.359Z,10.85
2022-10-27T05:18:25.123Z,21.00
2022-10-27T05:23:30.290Z,17.00
2022-10-27T05:28:34.071Z,19.17
2022-10-27T05:33:37.830Z,14.60
2022-10-27T05:38:42.982Z,18.67
2022-10-27T05:43:48.381Z,10.85
2022-10-27T05:48:52.248Z,13.20
2022-10-27T05:53:58.067Z,17.90
2022-10-27T05:59:01.895Z,15.02
2022-10-27T06:04:06.083Z,17.88
2022-10-27T06:09:11.320Z,20.77
2022-10-27T06:14:15.148Z,26.67
2022-10-27T06:19:18.943Z,19.00
2022-10-27T06:24:24.121Z,19.90
2022-10-27T06:29:28.058Z,18.10
2022-10-27T06:34:31.900Z,21.90
2022-10-27T06:39:37.188Z,19.27
2022-10-27T06:44:41.064Z,17.40
2022-10-27T06:49:44.870Z,20.33
2022-10-27T06:54:54.333Z,10.38
2022-10-27T06:59:58.994Z,16.80
2022-10-27T07:05:02.794Z,12.93
2022-10-27T07:10:09.506Z,18.20
2022-10-27T07:15:13.258Z,15.23
2022-10-27T07:20:17.032Z,17.65
2022-10-27T07:25:22.123Z,24.67
2022-10-27T07:30:27.529Z,18.48
2022-10-27T07:35:31.638Z,12.07
2022-10-27T07:40:36.870Z,18.67
2022-10-27T07:45:41.913Z,18.43
2022-10-27T07:50:46.444Z,19.87
2022-10-27T07:55:52.504Z,18.65
2022-10-27T08:06:03.158Z,10.00
2022-10-27T08:11:08.444Z,16.00
2022-10-27T08:16:12.255Z,12.57
2022-10-27T08:21:16.028Z,9.48
2022-10-27T08:26:21.679Z,19.50
2022-10-27T08:31:25.551Z,12.52
2022-10-27T08:36:29.416Z,11.80
2022-10-27T08:41:39.435Z,11.27
2022-10-27T08:46:46.571Z,15.15
2022-10-27T08:51:51.692Z,10.68
2022-10-27T08:56:58.741Z,15.47
2022-10-27T09:02:15.007Z,13.52
2022-10-27T09:07:23.499Z,11.95
2022-10-27T09:12:47.532Z,8.63
2022-10-27T09:17:54.787Z,10.13
2022-10-27T09:23:02.506Z,7.85
2022-10-27T09:28:14.317Z,5.57
2022-10-27T09:33:21.388Z,5.97
2022-10-27T09:38:27.542Z,8.82
2022-10-27T09:43:33.924Z,7.03
2022-10-27T09:48:37.764Z,13.23
2022-10-27T09:53:43.837Z,11.43
2022-10-27T09:58:57.235Z,6.70
2022-10-27T10:04:08.877Z,7.30
2022-10-27T10:09:24.382Z,8.55
2022-10-27T10:14:29.595Z,6.38
2022-10-27T10:19:33.377Z,7.63
2022-10-27T10:24:37.599Z,6.25
2022-10-27T10:29:48.165Z,6.83
2022-10-27T10:34:53.407Z,6.47
2022-10-27T10:40:10.974Z,9.27
2022-10-27T10:45:21.495Z,9.10
2022-10-27T10:50:25.320Z,5.68
2022-10-27T10:55:31.375Z,5.00
2022-10-27T11:00:36.892Z,6.13
2022-10-27T11:05:42.502Z,5.90
2022-10-27T11:10:46.431Z,12.65
2022-10-27T11:15:55.484Z,8.60
2022-10-27T11:21:02.929Z,6.55
2022-10-27T11:26:07.223Z,7.82
2022-10-27T11:31:19.041Z,8.57
2022-10-27T11:36:26.389Z,6.30
2022-10-27T11:41:34.275Z,8.60
2022-10-27T11:46:43.503Z,21.15
2022-10-27T11:51:50.352Z,7.93
2022-10-27T11:57:11.221Z,8.88
2022-10-27T12:02:39.609Z,7.55
2022-10-27T12:07:52.842Z,6.30
2022-10-27T12:13:01.418Z,9.88
2022-10-27T12:18:12.715Z,9.55
2022-10-27T12:23:20.011Z,6.28
2022-10-27T12:28:26.864Z,7.32
2022-10-27T12:33:35.450Z,8.30
2022-10-27T12:38:44.566Z,8.40
2022-10-27T12:43:53.345Z,9.15
2022-10-27T12:49:06.492Z,6.78
2022-10-27T12:54:21.201Z,4.60
2022-10-27T13:04:47.255Z,7.53
2022-10-27T13:10:21.556Z,5.85
2022-10-27T13:15:57.120Z,5.53
2022-10-27T13:21:08.631Z,9.85
2022-10-27T13:26:20.600Z,4.72
2022-10-27T13:31:25.527Z,8.18
2022-10-27T13:36:30.973Z,12.00
2022-10-27T13:41:51.598Z,8.25
2022-10-27T13:47:19.717Z,16.42
2022-10-27T13:52:34.252Z,8.82
2022-10-27T13:58:05.088Z,9.52
2022-10-27T14:03:21.499Z,8.38
2022-10-27T14:08:29.157Z,8.73
2022-10-27T14:13:36.878Z,8.32
2022-10-27T14:18:40.929Z,5.50
2022-10-27T14:23:46.235Z,7.35
2022-10-27T14:28:49.997Z,10.55
2022-10-27T14:33:54.919Z,14.10
2022-10-27T14:39:06.577Z,12.93
2022-10-27T14:44:18.445Z,9.45
2022-10-27T14:49:30.797Z,10.57
2022-10-27T14:54:39.335Z,9.77
2022-10-27T14:59:46.680Z,17.15
2022-10-27T15:04:50.487Z,15.63
2022-10-27T15:09:55.634Z,9.88
2022-10-27T15:15:02.934Z,12.43
2022-10-27T15:20:08.720Z,14.70
2022-10-27T15:25:15.719Z,23.20
2022-10-27T15:30:21.104Z,31.80
2022-10-27T15:35:30.365Z,50.25
2022-10-27T15:40:45.280Z,26.70
2022-10-27T15:45:50.936Z,26.00
2022-10-27T15:50:59.009Z,25.38
2022-10-27T15:56:05.948Z,23.65
2022-10-27T16:01:13.818Z,23.75
2022-10-27T16:06:22.379Z,9.05
2022-10-27T16:11:31.104Z,25.52
2022-10-27T16:16:36.819Z,25.35
2022-10-27T16:21:40.620Z,24.10
2022-10-27T16:26:45.912Z,13.27
2022-10-27T16:31:50.649Z,16.67
2022-10-27T16:36:54.425Z,19.50
2022-10-27T16:41:59.741Z,17.90
2022-10-27T16:47:08.023Z,26.70
2022-10-27T16:52:11.842Z,14.35
2022-10-27T16:57:17.058Z,16.67
2022-10-27T17:02:20.940Z,43.13
2022-10-27T17:07:24.787Z,30.55
2022-10-27T17:12:30.147Z,59.72
2022-10-27T17:17:34.926Z,19.70
2022-10-27T17:22:38.702Z,27.58
2022-10-27T17:27:43.876Z,25.35
2022-10-27T17:32:48.922Z,24.37
2022-10-27T17:37:52.909Z,23.83
2022-10-27T17:42:58.366Z,16.33
2022-10-27T17:48:02.152Z,23.07
2022-10-27T17:53:05.916Z,19.95
2022-10-27T17:58:11.431Z,20.77
2022-10-27T18:03:15.211Z,23.98
2022-10-27T18:08:19.021Z,25.05
2022-10-27T18:13:24.272Z,24.10
2022-10-27T18:18:28.230Z,30.23
2022-10-27T18:23:32.038Z,24.60
2022-10-27T18:33:46.224Z,35.90
2022-10-27T18:38:53.729Z,22.75
2022-10-27T18:43:59.051Z,22.02
2022-10-27T18:49:04.195Z,27.97
2022-10-27T18:54:10.451Z,23.33
2022-10-27T18:59:15.795Z,29.63
2022-10-27T19:04:19.574Z,38.80
2022-10-27T19:09:23.368Z,32.08
2022-10-27T19:14:28.529Z,19.02
2022-10-27T19:19:32.294Z,32.47
2022-10-27T19:24:36.115Z,30.83
2022-10-27T19:29:41.374Z,32.22
2022-10-27T19:34:49.077Z,21.03
2022-10-27T19:39:53.926Z,27.83
2022-10-27T19:44:59.556Z,28.83
2022-10-27T19:50:03.315Z,22.80
2022-10-27T19:55:08.115Z,29.23
2022-10-27T20:00:14.845Z,30.80
2022-10-27T20:05:23.651Z,21.70
2022-10-27T20:10:27.512Z,23.98
2022-10-27T20:15:32.709Z,27.35
2022-10-27T20:20:36.490Z,17.70
2022-10-27T20:25:40.284Z,30.17
2022-10-27T20:30:45.487Z,29.67
2022-10-27T20:35:49.568Z,26.90
2022-10-27T20:40:53.344Z,23.25
2022-10-27T20:45:58.652Z,21.90
2022-10-27T20:51:03.856Z,28.90
2022-10-27T20:56:08.716Z,30.90
2022-10-27T21:01:18.312Z,27.10
2022-10-27T21:06:22.139Z,38.75
2022-10-27T21:11:26.430Z,37.90
2022-10-27T21:16:32.030Z,42.35
2022-10-27T21:21:35.882Z,45.85
2022-10-27T21:26:39.639Z,49.80
2022-10-27T21:31:46.739Z,37.67
2022-10-27T21:36:50.571Z,47.33
2022-10-27T21:41:54.359Z,40.45
2022-10-27T21:46:59.815Z,51.80
2022-10-27T21:52:03.634Z,43.00
2022-10-27T21:57:07.555Z,34.47
2022-10-27T22:02:12.775Z,40.53
2022-10-27T22:07:16.616Z,50.37
2022-10-27T22:12:20.435Z,55.55
2022-10-27T22:17:25.669Z,59.47
2022-10-27T22:22:29.436Z,52.95
2022-10-27T22:27:33.452Z,39.22
2022-10-27T22:32:38.655Z,41.45
2022-10-27T22:37:42.638Z,37.55
2022-10-27T22:42:46.404Z,35.40
2022-10-27T22:47:51.812Z,33.90
2022-10-27T22:52:55.796Z,32.40
2022-10-27T22:57:59.584Z,34.40
2022-10-27T23:03:05.036Z,35.78
2022-10-27T23:08:08.830Z,29.43
2022-10-27T23:13:12.616Z,33.72
2022-10-27T23:18:17.814Z,40.58
2022-10-27T23:23:21.592Z,33.75
2022-10-27T23:28:25.855Z,26.90
2022-10-27T23:33:31.241Z,34.63
2022-10-27T23:38:35.021Z,34.97
2022-10-27T23:43:39.200Z,30.67
2022-10-27T23:48:44.415Z,33.75
2022-10-27T23:53:48.434Z,36.22
2022-10-27T23:58:52.232Z,41.53
